sim
Sign-in with your pilot id or email,
or register
Callsign
Passwort

Schedule Details

Flight Number: DLH817 (2)
Departure: Gothenburg Landvetter Airport (ESGG) at 13:05
Arrival: Frankfurt Airport (EDDF) at 14:45
Route: Lufthansa Passenger Schedule. Enter filed route here before submitting Pirep.

Weather Information
Getting current METAR information for ESGG 291250Z 21003KT 9999 SCT035 09/07 Q1004
Getting current METAR information for EDDF 291250Z 25004KT 200V300 9999 VCSH FEW020CB BKN028 10/08 Q1019 RESHRA NOSIG

Schedule Frequency

Route Map